OTBD/DOH METAR and TAF weather

Enter ICAO airport designator
Station Type Date Time Source
OTBD METAR 2019/10/21 02:00 UTC NOAA

OTBD 210200Z 00000KT 8000 NSC 29/24 Q1012 NOSIG


Station Type Date Time Source
OTBD Decoded METAR 2019/10/21 02:00 UTC NOAA

Doha International Airport, Qatar (OTBD) 25-15N 051-34E 10M
Oct 20, 2019 - 10:00 PM EDT / 2019.10.21 0200 UTC
Wind: Calm:0
Visibility: 4 mile(s):0
Temperature: 84 F (29 C)
Dew Point: 75 F (24 C)
Relative Humidity: 74%
Pressure (altimeter): 29.88 in. Hg (1012 hPa)
ob: OTBD 210200Z 00000KT 8000 NSC 29/24 Q1012 NOSIG
cycle: 2

Station Type Date Time Source
OTBD TAF 2019/10/20 18:18 UTC NOAA

TAF TAF OTBD 201714Z 2018/2124 06006KT CAVOK
BECMG 2022/2100 VRB02KT 8000 NSC PROB30
TEMPO 2100/2105 5000 HZ
BECMG 2103/2105 22004KT
BECMG 2107/2109 08008KT

Example: see airport list